SEAM/ATF METAR and TAF weather

Enter ICAO airport designator
Station Type Date Time Source
SEAM METAR 2019/02/22 21:00 UTC NOAA

SEAM 222100Z 10003KT 9999 FEW026 BKN030 BKN100 17/12 Q1027


Station Type Date Time Source
SEAM Decoded METAR 2019/02/22 21:00 UTC NOAA

Ambato / Chachoan, Ecuador (SEAM) 01-12S 078-34W
Feb 22, 2019 - 04:00 PM EST / 2019.02.22 2100 UTC
Wind: from the E (100 degrees) at 3 MPH (3 KT):0
Visibility: greater than 7 mile(s):0
Sky conditions: mostly cloudy
Temperature: 62 F (17 C)
Dew Point: 53 F (12 C)
Relative Humidity: 72%
Pressure (altimeter): 30.33 in. Hg (1027 hPa)
ob: SEAM 222100Z 10003KT 9999 FEW026 BKN030 BKN100 17/12 Q1027
cycle: 21

Station Type Date Time Source
SEAM TAF UTC NOAA

Error!


Example: see airport list